Time,TemperatureF,DewpointF,PressureIn,WindDirection,WindDirectionDegrees,WindSpeedMPH,WindSpeedGustMPH,Humidity,HourlyPrecipIn,Conditions,Clouds,dailyrainin,SoftwareType,DateUTC
2013-02-28 00:07:00,29.5,29.0,29.66,SSW,202,0.0,-999.0,98,-99.99,,,0.00,Acu-Link.com,2013-02-28 05:07:00,
2013-02-28 00:22:00,29.5,29.0,29.66,NE,45,0.0,-999.0,98,-99.99,,,0.00,Acu-Link.com,2013-02-28 05:22:00,
2013-02-28 00:37:00,29.5,29.0,29.65,WNW,292,0.0,-999.0,98,-99.99,,,0.00,Acu-Link.com,2013-02-28 05:37:00,
2013-02-28 00:53:00,29.5,29.0,29.64,ESE,112,0.0,-999.0,98,-99.99,,,0.00,Acu-Link.com,2013-02-28 05:53:00,
2013-02-28 01:08:00,29.3,28.8,29.64,WNW,292,0.0,-999.0,98,-99.99,,,0.00,Acu-Link.com,2013-02-28 06:08:00,
2013-02-28 01:24:00,29.3,28.8,29.63,SW,225,0.0,-999.0,98,-99.99,,,0.00,Acu-Link.com,2013-02-28 06:24:00,
2013-02-28 01:39:00,29.3,28.8,29.61,SW,225,0.0,-999.0,98,-99.99,,,0.00,Acu-Link.com,2013-02-28 06:39:00,
2013-02-28 01:55:00,29.3,28.8,29.61,SW,225,0.0,-999.0,98,-99.99,,,0.00,Acu-Link.com,2013-02-28 06:55:00,
2013-02-28 02:10:00,29.3,28.8,29.60,WNW,292,0.0,-999.0,98,-99.99,,,0.00,Acu-Link.com,2013-02-28 07:10:00,
2013-02-28 02:25:00,29.3,28.8,29.58,SSW,202,0.0,-999.0,98,-99.99,,,0.00,Acu-Link.com,2013-02-28 07:25:00,
2013-02-28 02:40:00,29.3,28.8,29.58,SW,225,0.0,-999.0,98,-99.99,,,0.00,Acu-Link.com,2013-02-28 07:40:00,
2013-02-28 02:56:00,29.1,28.6,29.57,SSW,202,0.0,-999.0,98,-99.99,,,0.00,Acu-Link.com,2013-02-28 07:56:00,
2013-02-28 03:11:00,29.1,28.6,29.57,SW,225,0.0,-999.0,98,-99.99,,,0.00,Acu-Link.com,2013-02-28 08:11:00,
2013-02-28 03:26:00,29.1,28.6,29.57,West,270,0.0,-999.0,98,-99.99,,,0.00,Acu-Link.com,2013-02-28 08:26:00,
2013-02-28 03:41:00,29.1,28.6,29.57,SW,225,0.0,-999.0,98,-99.99,,,0.00,Acu-Link.com,2013-02-28 08:41:00,
2013-02-28 03:58:00,29.1,28.6,29.57,SW,225,0.0,-999.0,98,-99.99,,,0.00,Acu-Link.com,2013-02-28 08:58:00,
2013-02-28 04:20:00,29.1,28.6,29.56,SW,225,0.0,-999.0,98,-99.99,,,0.00,Acu-Link.com,2013-02-28 09:20:00,
2013-02-28 04:35:00,29.3,28.8,29.56,SW,225,0.0,-999.0,98,-99.99,,,0.00,Acu-Link.com,2013-02-28 09:35:00,
2013-02-28 04:51:00,29.3,28.8,29.56,SW,225,0.0,-999.0,98,-99.99,,,0.00,Acu-Link.com,2013-02-28 09:51:00,
2013-02-28 05:06:00,29.3,28.8,29.56,WNW,292,0.0,-999.0,98,-99.99,,,0.00,Acu-Link.com,2013-02-28 10:06:00,
2013-02-28 05:22:00,29.5,29.0,29.55,WNW,292,0.0,-999.0,98,-99.99,,,0.00,Acu-Link.com,2013-02-28 10:22:00,
2013-02-28 05:37:00,29.5,29.0,29.55,WNW,292,0.0,-999.0,98,-99.99,,,0.00,Acu-Link.com,2013-02-28 10:37:00,
2013-02-28 05:52:00,29.5,29.0,29.55,WNW,292,0.0,-999.0,98,-99.99,,,0.00,Acu-Link.com,2013-02-28 10:52:00,
2013-02-28 06:07:00,29.7,29.2,29.55,WNW,292,0.0,-999.0,98,-99.99,,,0.00,Acu-Link.com,2013-02-28 11:07:00,
2013-02-28 06:22:00,29.7,29.2,29.56,WNW,292,0.0,-999.0,98,-99.99,,,0.00,Acu-Link.com,2013-02-28 11:22:00,
2013-02-28 06:38:00,29.7,29.2,29.56,WNW,292,0.0,-999.0,98,-99.99,,,0.00,Acu-Link.com,2013-02-28 11:38:00,
2013-02-28 06:53:00,29.8,29.3,29.56,WNW,292,0.0,-999.0,98,-99.99,,,0.00,Acu-Link.com,2013-02-28 11:53:00,
2013-02-28 07:08:00,30.2,29.7,29.57,WNW,292,0.0,-999.0,98,-99.99,,,0.00,Acu-Link.com,2013-02-28 12:08:00,
2013-02-28 07:24:00,30.4,29.9,29.56,WNW,292,0.0,-999.0,98,-99.99,,,0.00,Acu-Link.com,2013-02-28 12:24:00,
2013-02-28 07:39:00,30.9,30.4,29.57,West,270,0.0,-999.0,98,-99.99,,,0.00,Acu-Link.com,2013-02-28 12:39:00,
2013-02-28 07:54:00,31.6,31.1,29.57,West,270,0.0,-999.0,98,-99.99,,,0.00,Acu-Link.com,2013-02-28 12:54:00,
2013-02-28 08:10:00,32.0,31.5,29.57,West,270,0.0,-999.0,98,-99.99,,,0.00,Acu-Link.com,2013-02-28 13:10:00,
2013-02-28 08:26:00,32.2,31.7,29.56,West,270,0.0,-999.0,98,-99.99,,,0.00,Acu-Link.com,2013-02-28 13:26:00,
2013-02-28 08:41:00,32.7,32.2,29.57,ESE,112,0.0,-999.0,98,-99.99,,,0.00,Acu-Link.com,2013-02-28 13:41:00,
2013-02-28 08:56:00,33.3,32.8,29.56,East,90,0.0,-999.0,98,-99.99,,,0.01,Acu-Link.com,2013-02-28 13:56:00,
2013-02-28 09:13:00,34.0,33.5,29.56,ESE,112,0.0,-999.0,98,-99.99,,,0.01,Acu-Link.com,2013-02-28 14:13:00,
2013-02-28 09:28:00,34.7,34.2,29.55,SSE,157,0.0,-999.0,98,-99.99,,,0.01,Acu-Link.com,2013-02-28 14:28:00,
2013-02-28 09:56:00,35.4,34.9,29.55,South,180,0.0,-999.0,98,-99.99,,,0.01,Acu-Link.com,2013-02-28 14:56:00,
2013-02-28 10:12:00,35.8,35.0,29.55,South,180,0.0,-999.0,97,-99.99,,,0.01,Acu-Link.com,2013-02-28 15:12:00,
2013-02-28 10:28:00,39.4,37.5,29.55,South,180,0.0,-999.0,93,-99.99,,,0.01,Acu-Link.com,2013-02-28 15:28:00,
2013-02-28 10:43:00,39.6,37.5,29.56,South,180,0.0,-999.0,92,-99.99,,,0.01,Acu-Link.com,2013-02-28 15:43:00,
2013-02-28 10:58:00,39.4,37.3,29.55,South,180,0.0,-999.0,92,-99.99,,,0.01,Acu-Link.com,2013-02-28 15:58:00,
2013-02-28 11:13:00,39.6,37.5,29.55,South,180,0.0,-999.0,92,-99.99,,,0.01,Acu-Link.com,2013-02-28 16:13:00,
2013-02-28 11:29:00,38.8,37.0,29.55,South,180,0.0,-999.0,93,-99.99,,,0.01,Acu-Link.com,2013-02-28 16:29:00,
2013-02-28 11:44:00,39.2,37.6,29.55,South,180,0.0,-999.0,94,-99.99,,,0.01,Acu-Link.com,2013-02-28 16:44:00,
2013-02-28 11:59:00,39.6,36.9,29.55,South,180,0.0,-999.0,90,-99.99,,,0.01,Acu-Link.com,2013-02-28 16:59:00,
2013-02-28 12:14:00,39.7,37.3,29.55,South,180,0.0,-999.0,91,-99.99,,,0.10,Acu-Link.com,2013-02-28 17:14:00,
2013-02-28 12:29:00,40.5,38.6,29.54,South,180,0.0,-999.0,93,-99.99,,,0.17,Acu-Link.com,2013-02-28 17:29:00,
2013-02-28 12:45:00,41.2,39.3,29.53,South,180,0.0,-999.0,93,-99.99,,,0.22,Acu-Link.com,2013-02-28 17:45:00,
2013-02-28 13:00:00,40.5,38.9,29.53,South,180,0.0,-999.0,94,-99.99,,,0.27,Acu-Link.com,2013-02-28 18:00:00,
2013-02-28 13:15:00,39.7,38.7,29.53,South,180,0.0,-999.0,96,-99.99,,,0.31,Acu-Link.com,2013-02-28 18:15:00,
2013-02-28 13:30:00,40.3,39.0,29.52,South,180,1.7,-999.0,95,-99.99,,,0.40,Acu-Link.com,2013-02-28 18:30:00,
2013-02-28 13:46:00,40.3,39.0,29.52,South,180,0.0,-999.0,95,-99.99,,,0.43,Acu-Link.com,2013-02-28 18:46:00,
2013-02-28 14:01:00,41.9,40.0,29.51,South,180,0.0,-999.0,93,-99.99,,,0.46,Acu-Link.com,2013-02-28 19:01:00,
2013-02-28 14:16:00,41.7,39.6,29.50,South,180,0.0,-999.0,92,-99.99,,,0.48,Acu-Link.com,2013-02-28 19:16:00,
2013-02-28 14:31:00,41.9,39.5,29.50,South,180,0.0,-999.0,91,-99.99,,,0.52,Acu-Link.com,2013-02-28 19:31:00,
2013-02-28 14:47:00,42.3,40.1,29.51,South,180,0.0,-999.0,92,-99.99,,,0.55,Acu-Link.com,2013-02-28 19:47:00,
2013-02-28 15:02:00,41.9,39.2,29.50,South,180,0.0,-999.0,90,-99.99,,,0.57,Acu-Link.com,2013-02-28 20:02:00,
2013-02-28 15:17:00,41.5,39.4,29.50,South,180,0.0,-999.0,92,-99.99,,,0.58,Acu-Link.com,2013-02-28 20:17:00,
2013-02-28 15:32:00,41.2,39.9,29.50,South,180,0.0,-999.0,95,-99.99,,,0.60,Acu-Link.com,2013-02-28 20:32:00,
2013-02-28 15:48:00,40.3,39.3,29.50,South,180,0.0,-999.0,96,-99.99,,,0.63,Acu-Link.com,2013-02-28 20:48:00,
2013-02-28 16:03:00,39.7,38.9,29.50,South,180,0.0,-999.0,97,-99.99,,,0.64,Acu-Link.com,2013-02-28 21:03:00,
2013-02-28 16:18:00,39.2,38.7,29.50,South,180,0.0,-999.0,98,-99.99,,,0.65,Acu-Link.com,2013-02-28 21:18:00,
2013-02-28 16:33:00,38.3,37.8,29.51,South,180,0.0,-999.0,98,-99.99,,,0.66,Acu-Link.com,2013-02-28 21:33:00,
2013-02-28 16:48:00,37.4,36.9,29.50,South,180,0.0,-999.0,98,-99.99,,,0.67,Acu-Link.com,2013-02-28 21:48:00,
2013-02-28 17:04:00,37.0,36.5,29.51,South,180,0.0,-999.0,98,-99.99,,,0.68,Acu-Link.com,2013-02-28 22:04:00,
2013-02-28 17:19:00,36.3,35.8,29.51,South,180,0.0,-999.0,98,-99.99,,,0.69,Acu-Link.com,2013-02-28 22:19:00,
2013-02-28 17:35:00,35.8,35.3,29.51,South,180,0.0,-999.0,98,-99.99,,,0.69,Acu-Link.com,2013-02-28 22:35:00,
2013-02-28 17:50:00,35.4,34.9,29.52,South,180,0.0,-999.0,98,-99.99,,,0.70,Acu-Link.com,2013-02-28 22:50:00,
2013-02-28 18:05:00,35.1,34.6,29.51,South,180,0.0,-999.0,98,-99.99,,,0.71,Acu-Link.com,2013-02-28 23:05:00,
2013-02-28 18:20:00,34.9,34.4,29.52,South,180,0.0,-999.0,98,-99.99,,,0.71,Acu-Link.com,2013-02-28 23:20:00,
2013-02-28 18:35:00,34.7,34.2,29.53,South,180,0.0,-999.0,98,-99.99,,,0.72,Acu-Link.com,2013-02-28 23:35:00,
2013-02-28 18:51:00,34.3,33.8,29.52,South,180,0.0,-999.0,98,-99.99,,,0.73,Acu-Link.com,2013-02-28 23:51:00,
2013-02-28 19:06:00,34.2,33.7,29.53,South,180,0.0,-999.0,98,-99.99,,,0.73,Acu-Link.com,2013-03-01 00:06:00,
2013-02-28 19:21:00,34.2,33.7,29.52,South,180,0.0,-999.0,98,-99.99,,,0.75,Acu-Link.com,2013-03-01 00:21:00,
2013-02-28 19:36:00,33.8,33.3,29.52,South,180,0.0,-999.0,98,-99.99,,,0.75,Acu-Link.com,2013-03-01 00:36:00,
2013-02-28 19:51:00,33.8,33.3,29.52,South,180,0.0,-999.0,98,-99.99,,,0.75,Acu-Link.com,2013-03-01 00:51:00,
2013-02-28 20:07:00,33.4,32.9,29.53,South,180,0.0,-999.0,98,-99.99,,,0.76,Acu-Link.com,2013-03-01 01:07:00,
2013-02-28 20:22:00,33.3,32.8,29.52,South,180,0.0,-999.0,98,-99.99,,,0.76,Acu-Link.com,2013-03-01 01:22:00,
2013-02-28 20:38:00,33.1,32.6,29.53,South,180,0.0,-999.0,98,-99.99,,,0.77,Acu-Link.com,2013-03-01 01:38:00,
2013-02-28 20:53:00,32.9,32.4,29.52,South,180,0.0,-999.0,98,-99.99,,,0.77,Acu-Link.com,2013-03-01 01:53:00,
2013-02-28 21:08:00,32.7,32.2,29.53,South,180,0.0,-999.0,98,-99.99,,,0.77,Acu-Link.com,2013-03-01 02:08:00,
2013-02-28 21:24:00,32.5,32.0,29.52,South,180,0.0,-999.0,98,-99.99,,,0.77,Acu-Link.com,2013-03-01 02:24:00,
2013-02-28 21:39:00,32.4,31.9,29.53,South,180,0.0,-999.0,98,-99.99,,,0.78,Acu-Link.com,2013-03-01 02:39:00,
2013-02-28 21:54:00,32.4,31.9,29.52,South,180,0.0,-999.0,98,-99.99,,,0.78,Acu-Link.com,2013-03-01 02:54:00,
2013-02-28 22:09:00,32.2,31.7,29.52,South,180,0.0,-999.0,98,-99.99,,,0.78,Acu-Link.com,2013-03-01 03:09:00,
2013-02-28 22:24:00,32.2,31.7,29.51,South,180,0.0,-999.0,98,-99.99,,,0.78,Acu-Link.com,2013-03-01 03:24:00,
2013-02-28 22:40:00,32.2,31.7,29.51,South,180,0.0,-999.0,98,-99.99,,,0.78,Acu-Link.com,2013-03-01 03:40:00,
2013-02-28 22:55:00,32.2,31.7,29.51,South,180,0.0,-999.0,98,-99.99,,,0.78,Acu-Link.com,2013-03-01 03:55:00,
2013-02-28 23:10:00,32.0,31.5,29.51,South,180,0.0,-999.0,98,-99.99,,,0.78,Acu-Link.com,2013-03-01 04:10:00,
2013-02-28 23:25:00,32.0,31.5,29.50,South,180,0.0,-999.0,98,-99.99,,,0.78,Acu-Link.com,2013-03-01 04:25:00,
2013-02-28 23:41:00,32.0,31.5,29.49,South,180,0.0,-999.0,98,-99.99,,,0.78,Acu-Link.com,2013-03-01 04:41:00,
2013-02-28 23:56:00,31.8,31.3,29.50,South,180,0.0,-999.0,98,-99.99,,,0.78,Acu-Link.com,2013-03-01 04:56:00,